Lucinda Point, Queensland

12:55 PM AEST on February 06, 2016 (GMT +1000)
Macknade Mill | | Change Station
CLOSE
Current Station
Personal Weather Station
Location: Macknade, QUEENSLAND
Elevation: 30 ft
Nearby Weather Stations

Elev 30 ft 18.59 °S, 146.25 °E | Updated 12 minutes ago

Partly Cloudy
Partly Cloudy
91.5 °F
Feels Like 111 °F
N
7.0
Wind Variable Wind from NNE
Gusts 11.0 mph

Today
High -- | Low -- °F
--% Chance of Precip.
Yesterday
High -- | Low -- °F
Precip. -- in
Pressure 29.59 in
Visibility 6.2 miles
Clouds Few 2000 ft
Mostly Cloudy 28000 ft
Few 2500 ft
Heat Index 111 °F
Dew Point 80 °F
Humidity 70%
Rainfall 0.00 in
Snow Depth Not available.
6:02 AM 6:53 PM
Waning Crescent, 8% visible
METAR YBTL 060230Z 06012KT 9999 FEW020 BKN280 FEW025CB 31/27 Q1002 CORRECTED FROM NOSIG AUTO WEATHER 2 CORRECTED FROM VCTS-CC/DL-S AUTO RECENT WEATHER 1 CORRECTED FROM NOSIG AUTO RECENT WEATHER 2 CORRECTED FROM
Pressure 29.59 in
Visibility 6.2 miles
Clouds Few 2000 ft
Mostly Cloudy 28000 ft
Few 2500 ft
Heat Index 111 °F
Dew Point 80 °F
Humidity 70%
Rainfall 0.00 in
Snow Depth Not available.
6:02 AM 6:53 PM
Waning Crescent, 8% visible
METAR YBTL 060230Z 06012KT 9999 FEW020 BKN280 FEW025CB 31/27 Q1002 CORRECTED FROM NOSIG AUTO WEATHER 2 CORRECTED FROM VCTS-CC/DL-S AUTO RECENT WEATHER 1 CORRECTED FROM NOSIG AUTO RECENT WEATHER 2 CORRECTED FROM

10-Day Weather Forecast

Almanac

Astronomy

Feb. 06, 2016 Rise Set
Actual Time
Civil Twilight
Nautical Twilight
Astronomical Twilight
Moon
Length of Visible Light
Length of Day
Tomorrow will be .
, % of the Moon is Illuminated

Today's Extremes

Country Highs Country Lows

Community

WunderPhotos

Upload Photos

1,890,913 photos uploaded!

WunderBlog® & News

Nearby

Air Quality

  Air Quality AQ Index Pollutant
Not available.

Snow Depth

Station Depth Elevation

Earthquake Activity

City Distance Mag. Time & Date
Minimum magnitude displayed is 2.5.

Coastal Water Temperatures

Place Temperature

Stations

Nearby Weather Stations

Station Location Temp. Windchill Dew Point Humidity Wind Precip. Elev Updated Type